Time;durP1;ratioP1;P1;durP2;ratioP2;P2;SDS_P1;SDS_P2;PMS_P1;PMS_P2;Temp;Humidity;BMP_temperature;BMP_pressure;BME280_temperature;BME280_humidity;BME280_pressure;Samples;Min_cycle;Max_cycle;Signal;HPM_P1;HPM_P2
2023/09/17 00:00:40;;;;;;;11.35;6.82;;;;;;;;;;4979311;28;20053;-78
2023/09/17 00:03:05;;;;;;;9.95;6.95;;;;;;;;;;4979862;28;20474;-77
2023/09/17 00:05:34;;;;;;;10.82;6.80;;;;;;;;;;4979709;28;20026;-78
2023/09/17 00:08:00;;;;;;;9.70;6.50;;;;;;;;;;4996306;28;20038;-78
2023/09/17 00:10:28;;;;;;;6.70;6.00;;;;;;;;;;4997347;28;20039;-79
2023/09/17 00:12:55;;;;;;;8.98;6.93;;;;;;;;;;4979418;28;20038;-79
2023/09/17 00:15:27;;;;;;;7.28;6.13;;;;;;;;;;4978940;28;20037;-78
2023/09/17 00:17:53;;;;;;;10.00;7.15;;;;;;;;;;4996400;28;20027;-78
2023/09/17 00:20:18;;;;;;;8.10;6.53;;;;;;;;;;4995831;28;20456;-78
2023/09/17 00:22:44;;;;;;;8.60;6.60;;;;;;;;;;4979403;28;20114;-79
2023/09/17 00:25:09;;;;;;;7.20;6.10;;;;;;;;;;4979614;28;20039;-79
2023/09/17 00:27:34;;;;;;;8.77;6.78;;;;;;;;;;4979246;28;20080;-77
2023/09/17 00:29:59;;;;;;;10.07;7.25;;;;;;;;;;4979692;28;20018;-78
2023/09/17 00:32:25;;;;;;;8.93;7.07;;;;;;;;;;4996893;28;20038;-77
2023/09/17 00:34:51;;;;;;;9.82;7.68;;;;;;;;;;4996816;28;20039;-78
2023/09/17 00:37:16;;;;;;;8.75;6.43;;;;;;;;;;4979519;28;20045;-78
2023/09/17 00:39:41;;;;;;;8.32;6.60;;;;;;;;;;4979955;28;20034;-78
2023/09/17 00:42:07;;;;;;;8.55;6.47;;;;;;;;;;4980641;28;20481;-78
2023/09/17 00:44:33;;;;;;;8.27;6.55;;;;;;;;;;4994629;28;20026;-80
2023/09/17 00:47:00;;;;;;;13.40;6.82;;;;;;;;;;4996024;28;20026;-78
2023/09/17 00:49:27;;;;;;;8.77;6.38;;;;;;;;;;4999215;28;20038;-79
2023/09/17 00:51:52;;;;;;;8.68;6.32;;;;;;;;;;4998425;28;20030;-79
2023/09/17 00:54:19;;;;;;;10.65;6.88;;;;;;;;;;4978774;28;20023;-79
2023/09/17 00:56:44;;;;;;;8.82;6.10;;;;;;;;;;4998953;28;20027;-78
2023/09/17 00:59:10;;;;;;;9.50;6.60;;;;;;;;;;5018147;28;20127;-79
2023/09/17 01:01:36;;;;;;;8.98;5.95;;;;;;;;;;5017534;28;20042;-79
2023/09/17 01:04:01;;;;;;;8.73;6.35;;;;;;;;;;4999880;28;20031;-79
2023/09/17 01:06:29;;;;;;;7.13;6.05;;;;;;;;;;4985122;28;20559;-79
2023/09/17 01:08:55;;;;;;;8.25;5.65;;;;;;;;;;4986232;28;20023;-79
2023/09/17 01:11:20;;;;;;;11.85;5.40;;;;;;;;;;5002260;28;20046;-78
2023/09/17 01:13:58;;;;;;;5.32;4.82;;;;;;;;;;5001485;28;20039;-79
2023/09/17 01:16:26;;;;;;;9.73;5.50;;;;;;;;;;4997225;28;20574;-77
2023/09/17 01:18:53;;;;;;;6.93;4.88;;;;;;;;;;4988805;28;20706;-77
2023/09/17 01:21:31;;;;;;;6.07;4.68;;;;;;;;;;4983544;28;20041;-76
2023/09/17 01:24:15;;;;;;;5.60;4.38;;;;;;;;;;4987792;28;20160;-77
2023/09/17 01:26:44;;;;;;;5.13;4.28;;;;;;;;;;4991651;28;20091;-76
2023/09/17 01:29:13;;;;;;;5.22;4.57;;;;;;;;;;4991237;28;20766;-76
2023/09/17 01:31:38;;;;;;;6.18;4.13;;;;;;;;;;4993105;28;20103;-76
2023/09/17 01:34:04;;;;;;;5.43;4.43;;;;;;;;;;4988145;28;20125;-76
2023/09/17 01:36:35;;;;;;;6.38;4.30;;;;;;;;;;4987248;28;20049;-76
2023/09/17 01:39:05;;;;;;;6.60;4.70;;;;;;;;;;4996276;28;20049;-76
2023/09/17 01:41:34;;;;;;;4.60;4.20;;;;;;;;;;4990323;28;20034;-76
2023/09/17 01:44:01;;;;;;;6.68;4.60;;;;;;;;;;4988225;28;20046;-76
2023/09/17 01:46:27;;;;;;;6.90;4.75;;;;;;;;;;4988974;28;20466;-76
2023/09/17 01:48:53;;;;;;;6.28;4.05;;;;;;;;;;5000093;28;20035;-75
2023/09/17 01:51:18;;;;;;;10.68;4.30;;;;;;;;;;4978587;28;20030;-75
2023/09/17 01:53:45;;;;;;;4.65;4.00;;;;;;;;;;4977907;28;20455;-76
2023/09/17 01:56:14;;;;;;;7.28;4.13;;;;;;;;;;4966473;28;20118;-76
2023/09/17 01:58:40;;;;;;;5.20;3.92;;;;;;;;;;4981476;28;20050;-75
2023/09/17 02:01:05;;;;;;;7.07;4.28;;;;;;;;;;4963141;28;20034;-76
2023/09/17 02:03:30;;;;;;;4.55;3.92;;;;;;;;;;4976887;28;20034;-76
2023/09/17 02:05:56;;;;;;;7.75;3.95;;;;;;;;;;4979319;28;20066;-76
2023/09/17 02:08:21;;;;;;;5.60;3.30;;;;;;;;;;4964468;28;20035;-76
2023/09/17 02:10:47;;;;;;;8.80;3.72;;;;;;;;;;4964636;28;20049;-76
2023/09/17 02:13:12;;;;;;;4.50;3.88;;;;;;;;;;4981929;28;20041;-76
2023/09/17 02:15:37;;;;;;;5.65;3.72;;;;;;;;;;4995071;28;20076;-76
2023/09/17 02:18:03;;;;;;;6.10;3.47;;;;;;;;;;4989980;28;20045;-77
2023/09/17 02:20:28;;;;;;;5.20;3.45;;;;;;;;;;4987643;28;20029;-77
2023/09/17 02:22:54;;;;;;;4.63;3.42;;;;;;;;;;4984890;28;20037;-77
2023/09/17 02:25:19;;;;;;;4.30;3.67;;;;;;;;;;4995715;28;20057;-77
2023/09/17 02:27:46;;;;;;;5.38;3.63;;;;;;;;;;4972236;28;20053;-77
2023/09/17 02:30:11;;;;;;;7.55;4.07;;;;;;;;;;4997155;28;20103;-76
2023/09/17 02:32:37;;;;;;;3.53;3.20;;;;;;;;;;4998077;28;20026;-77
2023/09/17 02:35:05;;;;;;;5.03;3.10;;;;;;;;;;4991169;28;20106;-77
2023/09/17 02:37:30;;;;;;;4.05;3.55;;;;;;;;;;4986868;28;20037;-77
2023/09/17 02:39:56;;;;;;;5.10;3.40;;;;;;;;;;4991489;28;20049;-76
2023/09/17 02:42:21;;;;;;;4.00;3.53;;;;;;;;;;4989931;28;20023;-76
2023/09/17 02:44:46;;;;;;;4.20;3.25;;;;;;;;;;4985998;28;20030;-76
2023/09/17 02:47:12;;;;;;;5.15;3.67;;;;;;;;;;4968473;28;20387;-76
2023/09/17 02:49:37;;;;;;;4.07;3.55;;;;;;;;;;4993619;28;20516;-76
2023/09/17 02:52:03;;;;;;;4.68;3.60;;;;;;;;;;4966341;28;20039;-76
2023/09/17 02:54:28;;;;;;;4.32;3.63;;;;;;;;;;4964505;28;20113;-76
2023/09/17 02:56:54;;;;;;;4.07;3.65;;;;;;;;;;5002198;28;21103;-77
2023/09/17 02:59:19;;;;;;;4.00;3.50;;;;;;;;;;4985601;28;20038;-76
2023/09/17 03:01:45;;;;;;;5.25;3.15;;;;;;;;;;4995877;28;20073;-76
2023/09/17 03:04:10;;;;;;;4.25;3.20;;;;;;;;;;4999081;28;20080;-76
2023/09/17 03:06:36;;;;;;;4.95;3.15;;;;;;;;;;5069137;28;20125;-76
2023/09/17 03:09:04;;;;;;;5.40;3.05;;;;;;;;;;4986734;28;20470;-76
2023/09/17 03:11:29;;;;;;;5.45;3.55;;;;;;;;;;4987466;28;20054;-76
2023/09/17 03:13:55;;;;;;;4.78;3.35;;;;;;;;;;4984572;28;20042;-76
2023/09/17 03:16:21;;;;;;;3.55;3.13;;;;;;;;;;4997518;28;20497;-76
2023/09/17 03:18:46;;;;;;;3.45;3.15;;;;;;;;;;4997608;28;20046;-75
2023/09/17 03:21:12;;;;;;;3.78;3.25;;;;;;;;;;4985223;28;20075;-76
2023/09/17 03:23:38;;;;;;;3.95;3.55;;;;;;;;;;4986939;28;20031;-76
2023/09/17 03:26:05;;;;;;;5.90;3.15;;;;;;;;;;4990925;28;20058;-76
2023/09/17 03:28:31;;;;;;;3.72;3.30;;;;;;;;;;4983429;28;20046;-76
2023/09/17 03:30:57;;;;;;;4.18;3.40;;;;;;;;;;5008500;28;20569;-76
2023/09/17 03:33:22;;;;;;;5.20;3.85;;;;;;;;;;5007641;28;20053;-76
2023/09/17 03:35:48;;;;;;;3.50;3.17;;;;;;;;;;5009579;28;20022;-77
2023/09/17 03:38:14;;;;;;;3.45;3.15;;;;;;;;;;4976922;28;20050;-75
2023/09/17 03:40:39;;;;;;;4.30;3.47;;;;;;;;;;5019859;28;20312;-75
2023/09/17 03:43:05;;;;;;;3.17;2.88;;;;;;;;;;4974244;28;20083;-75
2023/09/17 03:45:31;;;;;;;4.18;3.63;;;;;;;;;;5006154;28;20087;-75
2023/09/17 03:47:56;;;;;;;3.42;3.13;;;;;;;;;;4993120;28;20030;-75
2023/09/17 03:50:21;;;;;;;3.25;2.97;;;;;;;;;;4991897;28;20028;-75
2023/09/17 03:52:50;;;;;;;3.40;3.10;;;;;;;;;;4986847;28;20097;-75
2023/09/17 03:55:16;;;;;;;4.80;3.22;;;;;;;;;;4983084;28;20041;-75
2023/09/17 03:57:41;;;;;;;4.22;3.22;;;;;;;;;;4980237;28;20468;-75
2023/09/17 04:00:07;;;;;;;3.60;3.03;;;;;;;;;;4981530;28;20041;-74
2023/09/17 04:02:34;;;;;;;3.35;3.05;;;;;;;;;;5067039;28;20024;-76
2023/09/17 04:04:59;;;;;;;4.63;2.80;;;;;;;;;;5001512;28;20044;-75
2023/09/17 04:07:25;;;;;;;5.22;3.83;;;;;;;;;;4982295;28;20030;-75
2023/09/17 04:09:50;;;;;;;3.28;3.00;;;;;;;;;;4989691;28;20034;-75
2023/09/17 04:12:15;;;;;;;8.27;3.30;;;;;;;;;;4994393;28;20041;-74
2023/09/17 04:14:41;;;;;;;3.88;3.17;;;;;;;;;;4995475;28;20024;-75
2023/09/17 04:17:06;;;;;;;3.50;3.20;;;;;;;;;;4989518;28;20038;-75
2023/09/17 04:19:32;;;;;;;4.47;3.13;;;;;;;;;;4986058;28;20046;-76
2023/09/17 04:21:58;;;;;;;3.25;2.95;;;;;;;;;;4969371;28;20057;-76
2023/09/17 04:24:24;;;;;;;2.95;2.75;;;;;;;;;;4990620;28;20409;-77
2023/09/17 04:26:52;;;;;;;3.30;3.00;;;;;;;;;;4985799;28;20038;-77
2023/09/17 04:29:18;;;;;;;4.75;3.50;;;;;;;;;;4967054;28;20043;-77
2023/09/17 04:31:43;;;;;;;7.57;3.47;;;;;;;;;;4971235;28;20449;-76
2023/09/17 04:34:09;;;;;;;5.75;3.65;;;;;;;;;;4967465;28;20034;-77
2023/09/17 04:36:34;;;;;;;4.10;3.08;;;;;;;;;;4971575;28;20468;-77
2023/09/17 04:38:59;;;;;;;4.90;3.00;;;;;;;;;;4956464;28;20163;-77
2023/09/17 04:41:26;;;;;;;5.63;2.83;;;;;;;;;;4990528;28;20041;-77
2023/09/17 04:43:51;;;;;;;6.45;3.00;;;;;;;;;;4979544;28;20035;-77
2023/09/17 04:46:17;;;;;;;5.00;3.17;;;;;;;;;;4972499;28;20497;-77
2023/09/17 04:48:42;;;;;;;6.38;3.10;;;;;;;;;;4981587;28;20486;-77
2023/09/17 04:51:08;;;;;;;3.55;2.80;;;;;;;;;;4964514;28;20541;-77
2023/09/17 04:53:33;;;;;;;4.32;3.03;;;;;;;;;;4986299;28;20057;-77
2023/09/17 04:55:59;;;;;;;3.20;2.80;;;;;;;;;;5051348;28;20045;-77
2023/09/17 04:58:24;;;;;;;5.10;2.97;;;;;;;;;;5058874;28;20047;-77
2023/09/17 05:00:50;;;;;;;2.95;2.75;;;;;;;;;;4989656;28;20041;-77
2023/09/17 05:03:16;;;;;;;3.85;3.42;;;;;;;;;;5051808;28;20069;-77
2023/09/17 05:05:41;;;;;;;3.08;2.78;;;;;;;;;;4992921;28;20098;-77
2023/09/17 05:08:07;;;;;;;3.22;2.92;;;;;;;;;;4990950;28;20115;-77
2023/09/17 05:10:35;;;;;;;4.35;2.75;;;;;;;;;;4986414;28;20045;-78
2023/09/17 05:13:05;;;;;;;3.80;2.53;;;;;;;;;;4989856;28;20095;-76
2023/09/17 05:15:31;;;;;;;5.03;2.70;;;;;;;;;;4984116;28;20034;-77
2023/09/17 05:17:56;;;;;;;3.70;2.85;;;;;;;;;;4992605;28;20033;-76
2023/09/17 05:20:21;;;;;;;4.40;2.60;;;;;;;;;;4984849;28;20137;-77
2023/09/17 05:22:47;;;;;;;2.70;2.50;;;;;;;;;;4984734;28;20053;-77
2023/09/17 05:25:12;;;;;;;3.03;2.72;;;;;;;;;;4990820;28;20039;-77
2023/09/17 05:27:37;;;;;;;4.70;2.75;;;;;;;;;;5049096;28;20085;-77
2023/09/17 05:30:03;;;;;;;2.92;2.72;;;;;;;;;;5052767;28;20034;-77
2023/09/17 05:32:29;;;;;;;2.75;2.55;;;;;;;;;;5046557;28;20773;-77
2023/09/17 05:34:58;;;;;;;5.45;2.60;;;;;;;;;;4985309;28;20070;-77
2023/09/17 05:37:23;;;;;;;2.55;2.17;;;;;;;;;;4990295;28;20039;-78
2023/09/17 05:39:49;;;;;;;2.80;2.47;;;;;;;;;;5054111;28;20088;-77
2023/09/17 05:42:14;;;;;;;6.00;2.70;;;;;;;;;;5049275;28;20023;-77
2023/09/17 05:44:39;;;;;;;4.10;2.45;;;;;;;;;;5049156;28;20175;-77
2023/09/17 05:47:04;;;;;;;5.95;2.13;;;;;;;;;;5052473;28;20039;-77
2023/09/17 05:49:30;;;;;;;5.10;2.58;;;;;;;;;;4987077;28;20452;-77
2023/09/17 05:51:56;;;;;;;4.63;2.58;;;;;;;;;;4988825;28;20058;-78
2023/09/17 05:54:21;;;;;;;3.20;2.58;;;;;;;;;;4991178;28;20026;-78
2023/09/17 05:56:46;;;;;;;3.88;2.50;;;;;;;;;;4989324;28;20388;-78
2023/09/17 05:59:12;;;;;;;3.40;2.38;;;;;;;;;;5053764;28;20070;-78
2023/09/17 06:01:37;;;;;;;2.63;2.42;;;;;;;;;;5069666;28;20030;-77
2023/09/17 06:04:02;;;;;;;2.78;2.55;;;;;;;;;;4986346;28;20073;-77
2023/09/17 06:06:28;;;;;;;4.82;2.20;;;;;;;;;;4986543;28;20043;-76
2023/09/17 06:08:53;;;;;;;2.40;2.20;;;;;;;;;;4984303;28;20023;-76
2023/09/17 06:11:19;;;;;;;3.55;2.40;;;;;;;;;;5048361;28;20039;-77
2023/09/17 06:13:44;;;;;;;3.45;2.20;;;;;;;;;;5055218;28;20502;-77
2023/09/17 06:16:09;;;;;;;3.70;2.40;;;;;;;;;;4986350;28;20510;-77
2023/09/17 06:18:35;;;;;;;2.33;2.10;;;;;;;;;;4984463;28;20635;-77
2023/09/17 06:21:00;;;;;;;2.80;2.20;;;;;;;;;;4992705;28;20031;-77
2023/09/17 06:23:27;;;;;;;5.90;2.38;;;;;;;;;;4976186;28;20050;-77
2023/09/17 06:25:52;;;;;;;2.78;2.20;;;;;;;;;;4988629;28;20043;-77
2023/09/17 06:28:17;;;;;;;2.90;2.20;;;;;;;;;;4978700;28;20038;-77
2023/09/17 06:30:44;;;;;;;5.90;2.30;;;;;;;;;;4983253;28;20024;-77
2023/09/17 06:33:09;;;;;;;2.50;2.30;;;;;;;;;;4977874;28;20034;-77
2023/09/17 06:35:34;;;;;;;2.25;2.15;;;;;;;;;;4961693;28;20031;-77
2023/09/17 06:38:00;;;;;;;2.15;2.00;;;;;;;;;;4984954;28;20047;-77
2023/09/17 06:40:25;;;;;;;2.47;2.28;;;;;;;;;;4958874;28;20041;-77
2023/09/17 06:42:50;;;;;;;4.43;2.00;;;;;;;;;;4979579;28;20042;-77
2023/09/17 06:45:17;;;;;;;2.47;2.25;;;;;;;;;;4967037;28;20239;-77
2023/09/17 06:47:42;;;;;;;2.63;2.15;;;;;;;;;;4964665;28;20018;-77
2023/09/17 06:50:08;;;;;;;2.85;2.33;;;;;;;;;;4986534;28;20080;-77
2023/09/17 06:52:33;;;;;;;5.00;2.40;;;;;;;;;;4983116;28;20462;-77
2023/09/17 06:54:58;;;;;;;2.33;2.10;;;;;;;;;;5054046;28;20578;-77
2023/09/17 06:57:24;;;;;;;2.40;2.20;;;;;;;;;;4987512;28;20111;-77
2023/09/17 06:59:49;;;;;;;3.70;2.20;;;;;;;;;;4988575;28;20072;-77
2023/09/17 07:02:15;;;;;;;3.30;1.95;;;;;;;;;;4986590;28;20042;-77
2023/09/17 07:04:40;;;;;;;3.67;2.28;;;;;;;;;;4987998;28;20039;-77
2023/09/17 07:07:05;;;;;;;2.92;2.22;;;;;;;;;;5051962;28;20092;-77
2023/09/17 07:09:32;;;;;;;4.05;1.98;;;;;;;;;;4989307;28;20084;-77
2023/09/17 07:11:57;;;;;;;2.83;2.28;;;;;;;;;;4990008;28;20049;-77
2023/09/17 07:14:22;;;;;;;1.98;1.77;;;;;;;;;;4988043;28;20071;-78
2023/09/17 07:16:48;;;;;;;3.00;2.15;;;;;;;;;;5052724;28;20039;-77
2023/09/17 07:19:14;;;;;;;2.13;1.98;;;;;;;;;;4987934;28;20100;-77
2023/09/17 07:21:40;;;;;;;2.03;1.83;;;;;;;;;;4988170;28;20041;-77
2023/09/17 07:24:05;;;;;;;2.28;1.95;;;;;;;;;;5049834;28;20031;-77
2023/09/17 07:26:31;;;;;;;5.60;2.28;;;;;;;;;;5052270;28;20027;-77
2023/09/17 07:28:56;;;;;;;2.10;2.00;;;;;;;;;;5072820;28;20506;-77
2023/09/17 07:31:21;;;;;;;2.13;1.92;;;;;;;;;;4988386;28;20052;-77
2023/09/17 07:33:46;;;;;;;4.78;2.33;;;;;;;;;;4989748;28;20106;-78
2023/09/17 07:36:13;;;;;;;10.85;2.70;;;;;;;;;;4988218;28;20101;-78
2023/09/17 07:38:38;;;;;;;2.05;1.80;;;;;;;;;;4984783;28;20486;-77
2023/09/17 07:41:04;;;;;;;2.30;2.10;;;;;;;;;;4987955;28;20113;-78
2023/09/17 07:43:29;;;;;;;2.00;1.80;;;;;;;;;;4986300;28;20050;-78
2023/09/17 07:45:54;;;;;;;2.20;2.00;;;;;;;;;;5047724;28;20050;-77
2023/09/17 07:48:25;;;;;;;1.95;1.85;;;;;;;;;;4985525;28;20101;-78
2023/09/17 07:50:55;;;;;;;4.38;2.33;;;;;;;;;;5069018;28;20231;-78
2023/09/17 07:53:21;;;;;;;5.45;2.20;;;;;;;;;;4984819;28;20057;-78
2023/09/17 07:55:46;;;;;;;4.82;2.28;;;;;;;;;;4986775;28;20636;-78
2023/09/17 07:58:11;;;;;;;2.33;2.10;;;;;;;;;;4987973;28;20042;-78
2023/09/17 08:00:36;;;;;;;3.75;1.98;;;;;;;;;;5064463;28;20036;-77
2023/09/17 08:03:02;;;;;;;5.47;2.13;;;;;;;;;;4979965;28;20041;-78
2023/09/17 08:05:27;;;;;;;2.17;2.00;;;;;;;;;;5056092;28;20042;-78
2023/09/17 08:07:53;;;;;;;2.22;1.95;;;;;;;;;;4982889;28;20046;-77
2023/09/17 08:10:18;;;;;;;3.72;1.88;;;;;;;;;;5050479;28;20560;-77
2023/09/17 08:12:43;;;;;;;2.40;2.08;;;;;;;;;;5046716;28;20919;-78
2023/09/17 08:15:09;;;;;;;2.20;2.00;;;;;;;;;;5047925;28;20374;-78
2023/09/17 08:17:34;;;;;;;2.00;1.80;;;;;;;;;;4988361;28;20037;-78
2023/09/17 08:19:59;;;;;;;2.10;2.00;;;;;;;;;;4984996;28;20087;-78
2023/09/17 08:22:27;;;;;;;3.22;2.03;;;;;;;;;;5000839;28;20035;-78
2023/09/17 08:24:52;;;;;;;2.53;2.28;;;;;;;;;;5006224;28;20048;-78
2023/09/17 08:27:19;;;;;;;3.53;1.95;;;;;;;;;;5059865;28;20247;-78
2023/09/17 08:29:45;;;;;;;4.60;1.88;;;;;;;;;;4993196;28;20050;-77
2023/09/17 08:32:11;;;;;;;2.42;1.90;;;;;;;;;;4980715;28;20484;-78
2023/09/17 08:34:36;;;;;;;5.22;2.08;;;;;;;;;;4966820;28;20077;-78
2023/09/17 08:37:04;;;;;;;2.28;2.08;;;;;;;;;;4972661;28;20429;-78
2023/09/17 08:39:30;;;;;;;1.95;1.85;;;;;;;;;;4965364;28;20047;-78
2023/09/17 08:41:59;;;;;;;4.65;1.90;;;;;;;;;;4970791;28;20494;-78
2023/09/17 08:44:26;;;;;;;2.20;2.00;;;;;;;;;;4953832;28;20121;-77
2023/09/17 08:46:52;;;;;;;2.00;1.90;;;;;;;;;;4958770;28;20062;-78
2023/09/17 08:49:17;;;;;;;2.33;2.13;;;;;;;;;;4984135;28;20034;-78
2023/09/17 08:51:47;;;;;;;5.85;2.35;;;;;;;;;;4996420;28;20104;-78
2023/09/17 08:54:26;;;;;;;2.70;2.10;;;;;;;;;;4988080;28;20910;-78
2023/09/17 08:56:52;;;;;;;2.88;1.90;;;;;;;;;;4993196;28;20081;-78
2023/09/17 08:59:40;;;;;;;2.40;2.00;;;;;;;;;;4984657;28;20066;-78
2023/09/17 09:02:25;;;;;;;4.53;2.15;;;;;;;;;;4997951;28;20228;-78
2023/09/17 09:04:51;;;;;;;2.22;2.13;;;;;;;;;;5023094;28;20046;-77
2023/09/17 09:07:27;;;;;;;2.40;2.20;;;;;;;;;;4981475;28;20177;-78
2023/09/17 09:09:54;;;;;;;2.67;2.13;;;;;;;;;;5054193;28;20106;-78
2023/09/17 09:12:20;;;;;;;2.10;1.90;;;;;;;;;;5027539;28;20024;-78
2023/09/17 09:14:47;;;;;;;2.97;2.20;;;;;;;;;;4984048;28;20029;-78
2023/09/17 09:17:13;;;;;;;2.28;2.08;;;;;;;;;;4984008;28;20073;-77
2023/09/17 09:19:39;;;;;;;2.17;1.98;;;;;;;;;;4983132;28;20049;-78
2023/09/17 09:22:04;;;;;;;2.00;1.90;;;;;;;;;;4981283;28;20496;-78
2023/09/17 09:24:41;;;;;;;2.45;2.25;;;;;;;;;;4981864;28;20034;-78
2023/09/17 09:27:06;;;;;;;2.30;2.00;;;;;;;;;;4986000;28;20034;-78
2023/09/17 09:29:33;;;;;;;2.10;1.85;;;;;;;;;;4987292;28;20349;-77
2023/09/17 09:31:58;;;;;;;2.47;2.20;;;;;;;;;;4983495;28;20062;-78
2023/09/17 09:34:25;;;;;;;2.33;2.13;;;;;;;;;;4986675;28;20118;-78
2023/09/17 09:36:51;;;;;;;4.93;2.33;;;;;;;;;;5015963;28;20041;-78
2023/09/17 09:39:16;;;;;;;2.63;2.17;;;;;;;;;;5086109;28;20059;-78
2023/09/17 09:41:42;;;;;;;3.05;2.47;;;;;;;;;;5071233;28;20016;-78
2023/09/17 09:44:07;;;;;;;2.88;2.45;;;;;;;;;;4999469;28;20035;-78
2023/09/17 09:46:33;;;;;;;2.35;2.15;;;;;;;;;;4988012;28;20180;-78
2023/09/17 09:49:02;;;;;;;3.30;2.35;;;;;;;;;;4987644;28;20035;-78
2023/09/17 09:51:30;;;;;;;3.33;2.30;;;;;;;;;;4968727;28;20597;-78
2023/09/17 09:53:56;;;;;;;4.78;2.42;;;;;;;;;;4986058;28;20022;-77
2023/09/17 09:56:27;;;;;;;3.63;2.13;;;;;;;;;;4987816;28;20100;-78
2023/09/17 09:58:54;;;;;;;5.13;2.50;;;;;;;;;;4986594;28;20050;-78
2023/09/17 10:01:19;;;;;;;2.67;2.20;;;;;;;;;;4989381;28;20410;-78
2023/09/17 10:03:47;;;;;;;3.25;2.80;;;;;;;;;;4990118;28;20038;-78
2023/09/17 10:06:12;;;;;;;2.50;2.30;;;;;;;;;;4989486;28;20056;-78
2023/09/17 10:08:39;;;;;;;2.35;2.20;;;;;;;;;;4988805;28;20014;-78
2023/09/17 10:11:05;;;;;;;2.75;2.22;;;;;;;;;;4967216;28;20518;-77
2023/09/17 10:13:32;;;;;;;2.75;2.50;;;;;;;;;;4969310;28;20035;-77
2023/09/17 10:15:58;;;;;;;2.22;2.10;;;;;;;;;;4987483;28;20066;-77
2023/09/17 10:18:27;;;;;;;2.45;2.25;;;;;;;;;;4990399;28;20513;-78
2023/09/17 10:20:54;;;;;;;2.40;2.20;;;;;;;;;;4987046;28;20022;-77
2023/09/17 10:23:22;;;;;;;2.33;2.22;;;;;;;;;;4988920;28;20073;-77
2023/09/17 10:25:48;;;;;;;2.30;2.20;;;;;;;;;;4987831;28;20041;-78
2023/09/17 10:28:15;;;;;;;3.28;2.20;;;;;;;;;;4990252;28;20117;-78
2023/09/17 10:30:43;;;;;;;4.80;2.85;;;;;;;;;;5035671;28;20036;-78
2023/09/17 10:33:10;;;;;;;2.25;2.05;;;;;;;;;;4993529;28;20048;-78
2023/09/17 10:35:35;;;;;;;3.47;2.10;;;;;;;;;;4984908;28;20042;-79
2023/09/17 10:38:03;;;;;;;2.40;2.20;;;;;;;;;;4964608;28;20058;-78
2023/09/17 10:40:30;;;;;;;2.58;2.38;;;;;;;;;;4993909;28;20060;-79
2023/09/17 10:42:57;;;;;;;2.95;2.40;;;;;;;;;;5068695;28;20037;-78
2023/09/17 10:45:23;;;;;;;3.22;2.40;;;;;;;;;;4992862;28;20030;-79
2023/09/17 10:47:50;;;;;;;3.30;2.50;;;;;;;;;;5006901;28;20022;-80
2023/09/17 10:50:15;;;;;;;3.95;2.10;;;;;;;;;;5056585;28;20083;-79
2023/09/17 10:52:41;;;;;;;4.45;2.28;;;;;;;;;;5052923;28;20034;-79
2023/09/17 10:55:08;;;;;;;5.50;2.03;;;;;;;;;;5062171;28;20036;-79
2023/09/17 10:57:41;;;;;;;2.45;2.15;;;;;;;;;;4990321;28;20039;-78
2023/09/17 11:00:13;;;;;;;2.78;2.10;;;;;;;;;;4992296;28;20155;-78
2023/09/17 11:02:45;;;;;;;4.20;2.42;;;;;;;;;;5044626;28;20018;-78
2023/09/17 11:05:14;;;;;;;2.50;2.30;;;;;;;;;;4990152;28;20030;-77
2023/09/17 11:07:41;;;;;;;2.10;2.00;;;;;;;;;;5052893;28;20511;-77
2023/09/17 11:10:07;;;;;;;2.08;1.98;;;;;;;;;;4992971;28;20076;-78
2023/09/17 11:12:33;;;;;;;3.50;2.17;;;;;;;;;;5055619;28;20486;-78
2023/09/17 11:14:58;;;;;;;2.78;2.40;;;;;;;;;;4992214;28;20331;-79
2023/09/17 11:17:31;;;;;;;5.65;2.25;;;;;;;;;;4992015;28;20039;-78
2023/09/17 11:19:57;;;;;;;3.90;2.05;;;;;;;;;;4990770;28;20048;-79
2023/09/17 11:22:23;;;;;;;3.00;2.15;;;;;;;;;;5054447;28;20031;-79
2023/09/17 11:24:50;;;;;;;2.95;2.30;;;;;;;;;;5047342;28;20196;-79
2023/09/17 11:27:19;;;;;;;2.70;2.08;;;;;;;;;;4990999;28;20128;-79
2023/09/17 11:29:45;;;;;;;4.57;2.20;;;;;;;;;;5054304;28;20105;-79
2023/09/17 11:32:13;;;;;;;2.55;2.17;;;;;;;;;;5056858;28;20381;-79
2023/09/17 11:34:41;;;;;;;2.70;2.17;;;;;;;;;;4988061;28;20034;-78
2023/09/17 11:37:06;;;;;;;3.13;2.30;;;;;;;;;;4987851;28;20037;-78
2023/09/17 11:39:35;;;;;;;2.38;2.17;;;;;;;;;;5050386;28;20042;-77
2023/09/17 11:42:08;;;;;;;4.80;2.47;;;;;;;;;;4987454;28;20028;-78
2023/09/17 11:44:35;;;;;;;2.28;2.17;;;;;;;;;;4970373;28;20034;-77
2023/09/17 11:47:01;;;;;;;3.83;2.03;;;;;;;;;;4988093;28;20031;-77
2023/09/17 11:49:28;;;;;;;2.00;1.90;;;;;;;;;;4987748;28;20509;-78
2023/09/17 11:51:57;;;;;;;2.40;2.20;;;;;;;;;;4987782;28;20030;-78
2023/09/17 11:54:25;;;;;;;3.35;2.40;;;;;;;;;;4988455;28;20026;-78
2023/09/17 11:56:53;;;;;;;2.55;2.10;;;;;;;;;;4970679;28;20095;-78
2023/09/17 11:59:20;;;;;;;3.28;2.20;;;;;;;;;;4987203;28;20043;-78
2023/09/17 12:01:54;;;;;;;4.93;2.38;;;;;;;;;;4988493;28;20551;-77
2023/09/17 12:04:20;;;;;;;;;;;;;;;;;;4988082;28;20156;-78
2023/09/17 12:06:50;;;;;;;2.10;2.00;;;;;;;;;;4972520;28;19914;-78
2023/09/17 12:09:20;;;;;;;2.38;2.00;;;;;;;;;;4993370;28;20045;-78
2023/09/17 12:11:47;;;;;;;2.25;1.98;;;;;;;;;;4985595;28;20129;-78
2023/09/17 12:14:13;;;;;;;2.10;1.95;;;;;;;;;;4981539;28;20036;-78
2023/09/17 12:16:38;;;;;;;2.20;2.10;;;;;;;;;;4968188;28;20046;-78
2023/09/17 12:19:04;;;;;;;2.30;2.10;;;;;;;;;;4990065;28;20039;-78
2023/09/17 12:21:31;;;;;;;2.20;2.05;;;;;;;;;;4984800;28;20033;-78
2023/09/17 12:23:58;;;;;;;2.10;2.00;;;;;;;;;;4985154;28;20019;-79
2023/09/17 12:26:25;;;;;;;4.57;2.50;;;;;;;;;;4970933;28;20038;-78
2023/09/17 12:28:50;;;;;;;2.40;2.20;;;;;;;;;;5031511;28;20594;-78
2023/09/17 12:31:16;;;;;;;3.35;2.35;;;;;;;;;;5025827;28;20264;-78
2023/09/17 12:33:43;;;;;;;2.40;2.20;;;;;;;;;;4970210;28;20132;-78
2023/09/17 12:36:09;;;;;;;3.20;2.30;;;;;;;;;;4982063;28;20027;-78
2023/09/17 12:38:35;;;;;;;2.40;2.20;;;;;;;;;;4968590;28;20132;-78
2023/09/17 12:41:00;;;;;;;2.25;2.10;;;;;;;;;;4982445;28;20049;-78
2023/09/17 12:43:25;;;;;;;4.40;2.35;;;;;;;;;;4986846;28;20587;-78
2023/09/17 12:45:51;;;;;;;2.60;2.20;;;;;;;;;;5052105;28;20053;-78
2023/09/17 12:48:18;;;;;;;4.07;2.15;;;;;;;;;;4985602;28;20026;-78
2023/09/17 12:50:43;;;;;;;3.78;2.10;;;;;;;;;;4980276;28;20037;-78
2023/09/17 12:53:09;;;;;;;2.03;1.92;;;;;;;;;;4983069;28;20030;-78
2023/09/17 12:55:34;;;;;;;3.08;2.22;;;;;;;;;;4985432;28;20058;-78
2023/09/17 12:58:05;;;;;;;2.05;1.95;;;;;;;;;;4988881;28;20042;-78
2023/09/17 13:00:30;;;;;;;2.13;2.03;;;;;;;;;;5054670;28;20040;-78
2023/09/17 13:02:56;;;;;;;2.25;2.15;;;;;;;;;;4981893;28;20027;-78
2023/09/17 13:05:21;;;;;;;2.60;2.40;;;;;;;;;;5050904;28;20030;-78
2023/09/17 13:07:47;;;;;;;5.85;2.30;;;;;;;;;;4981477;28;20060;-78
2023/09/17 13:10:12;;;;;;;1.85;1.73;;;;;;;;;;5045608;28;20057;-78
2023/09/17 13:12:43;;;;;;;5.70;2.00;;;;;;;;;;4983855;28;20038;-78
2023/09/17 13:15:09;;;;;;;2.50;2.30;;;;;;;;;;4993861;28;20030;-78
2023/09/17 13:17:35;;;;;;;4.72;2.10;;;;;;;;;;4989748;28;20510;-78
2023/09/17 13:20:00;;;;;;;3.67;2.20;;;;;;;;;;4987364;28;20460;-78
2023/09/17 13:22:26;;;;;;;4.28;2.40;;;;;;;;;;4984918;28;20034;-78
2023/09/17 13:24:53;;;;;;;2.28;2.08;;;;;;;;;;4985088;28;20583;-77
2023/09/17 13:27:19;;;;;;;2.60;2.20;;;;;;;;;;4989513;28;20026;-79
2023/09/17 13:29:49;;;;;;;2.63;2.25;;;;;;;;;;4992856;28;20128;-78
2023/09/17 13:32:16;;;;;;;3.05;2.28;;;;;;;;;;4992650;28;20034;-78
2023/09/17 13:34:42;;;;;;;3.15;2.35;;;;;;;;;;5060053;28;20379;-77
2023/09/17 13:37:08;;;;;;;2.58;2.38;;;;;;;;;;4993018;28;20100;-78
2023/09/17 13:39:37;;;;;;;4.20;2.20;;;;;;;;;;5060760;28;20041;-79
2023/09/17 13:42:03;;;;;;;2.95;2.33;;;;;;;;;;5061572;28;20441;-79
2023/09/17 13:44:28;;;;;;;2.65;2.40;;;;;;;;;;4993020;28;20042;-78
2023/09/17 13:46:55;;;;;;;5.40;2.53;;;;;;;;;;4992638;28;20041;-79
2023/09/17 13:49:22;;;;;;;2.38;2.13;;;;;;;;;;4993406;28;20042;-78
2023/09/17 13:51:49;;;;;;;2.70;2.50;;;;;;;;;;5059695;28;20050;-79
2023/09/17 13:54:14;;;;;;;2.40;2.20;;;;;;;;;;5059888;28;20076;-79
2023/09/17 13:56:39;;;;;;;4.40;2.30;;;;;;;;;;5060682;28;20022;-78
2023/09/17 13:59:05;;;;;;;2.92;2.30;;;;;;;;;;5060896;28;20498;-77
2023/09/17 14:01:30;;;;;;;4.50;2.22;;;;;;;;;;5059953;28;20035;-78
2023/09/17 14:03:55;;;;;;;4.70;2.45;;;;;;;;;;4993713;28;20031;-79
2023/09/17 14:06:21;;;;;;;2.05;1.95;;;;;;;;;;5060404;28;20031;-79
2023/09/17 14:08:46;;;;;;;2.97;2.45;;;;;;;;;;4993575;28;20085;-79
2023/09/17 14:11:11;;;;;;;2.20;2.10;;;;;;;;;;4992337;28;20493;-78
2023/09/17 14:13:38;;;;;;;4.72;2.30;;;;;;;;;;4996056;28;20038;-79
2023/09/17 14:16:04;;;;;;;3.05;2.20;;;;;;;;;;5058415;28;20042;-78
2023/09/17 14:18:29;;;;;;;2.22;2.13;;;;;;;;;;5056871;28;20039;-78
2023/09/17 14:20:55;;;;;;;2.33;2.13;;;;;;;;;;5051698;28;20109;-78
2023/09/17 14:23:21;;;;;;;3.00;1.90;;;;;;;;;;4990035;28;20047;-78
2023/09/17 14:25:47;;;;;;;2.40;2.20;;;;;;;;;;4990182;28;20088;-78
2023/09/17 14:28:12;;;;;;;2.10;1.98;;;;;;;;;;4990783;28;20494;-79
2023/09/17 14:30:38;;;;;;;7.07;2.22;;;;;;;;;;5062804;28;20041;-77
2023/09/17 14:33:03;;;;;;;2.47;1.98;;;;;;;;;;5063328;28;20027;-79
2023/09/17 14:35:29;;;;;;;2.88;2.30;;;;;;;;;;4996100;28;20030;-79
2023/09/17 14:37:54;;;;;;;7.80;2.13;;;;;;;;;;4995897;28;20042;-79